sensor_id;sensor_type;location;lat;lon;timestamp;P1;durP1;ratioP1;P2;durP2;ratioP2
61756;SDS011;57225;61.460;24.060;2023-05-10T00:00:45;6.00;;;2.15;;
61756;SDS011;57225;61.460;24.060;2023-05-10T00:03:30;7.90;;;2.28;;
61756;SDS011;57225;61.460;24.060;2023-05-10T00:06:16;7.00;;;2.25;;
61756;SDS011;57225;61.460;24.060;2023-05-10T00:09:01;4.30;;;2.13;;
61756;SDS011;57225;61.460;24.060;2023-05-10T00:11:46;5.55;;;2.20;;
61756;SDS011;57225;61.460;24.060;2023-05-10T00:14:31;4.32;;;1.80;;
61756;SDS011;57225;61.460;24.060;2023-05-10T00:17:15;6.68;;;2.13;;
61756;SDS011;57225;61.460;24.060;2023-05-10T00:20:00;4.90;;;2.03;;
61756;SDS011;57225;61.460;24.060;2023-05-10T00:22:44;7.57;;;2.17;;
61756;SDS011;57225;61.460;24.060;2023-05-10T00:25:29;4.68;;;2.30;;
61756;SDS011;57225;61.460;24.060;2023-05-10T00:28:13;7.28;;;2.70;;
61756;SDS011;57225;61.460;24.060;2023-05-10T00:30:58;5.15;;;2.03;;
61756;SDS011;57225;61.460;24.060;2023-05-10T00:33:42;6.53;;;2.08;;
61756;SDS011;57225;61.460;24.060;2023-05-10T00:36:27;3.42;;;2.00;;
61756;SDS011;57225;61.460;24.060;2023-05-10T00:39:11;7.28;;;2.05;;
61756;SDS011;57225;61.460;24.060;2023-05-10T00:41:55;4.05;;;2.28;;
61756;SDS011;57225;61.460;24.060;2023-05-10T00:44:40;6.63;;;2.33;;
61756;SDS011;57225;61.460;24.060;2023-05-10T00:47:24;4.65;;;2.00;;
61756;SDS011;57225;61.460;24.060;2023-05-10T00:50:10;4.93;;;2.35;;
61756;SDS011;57225;61.460;24.060;2023-05-10T00:52:54;4.53;;;2.03;;
61756;SDS011;57225;61.460;24.060;2023-05-10T00:55:38;3.38;;;2.22;;
61756;SDS011;57225;61.460;24.060;2023-05-10T00:58:23;5.90;;;2.03;;
61756;SDS011;57225;61.460;24.060;2023-05-10T01:01:11;17.38;;;2.92;;
61756;SDS011;57225;61.460;24.060;2023-05-10T01:03:57;15.63;;;2.95;;
61756;SDS011;57225;61.460;24.060;2023-05-10T01:06:41;15.95;;;2.80;;
61756;SDS011;57225;61.460;24.060;2023-05-10T01:09:26;5.72;;;2.55;;
61756;SDS011;57225;61.460;24.060;2023-05-10T01:12:11;5.60;;;2.30;;
61756;SDS011;57225;61.460;24.060;2023-05-10T01:14:55;8.48;;;2.33;;
61756;SDS011;57225;61.460;24.060;2023-05-10T01:17:40;6.13;;;2.40;;
61756;SDS011;57225;61.460;24.060;2023-05-10T01:20:28;5.55;;;2.20;;
61756;SDS011;57225;61.460;24.060;2023-05-10T01:26:53;4.15;;;1.85;;
61756;SDS011;57225;61.460;24.060;2023-05-10T01:32:24;3.25;;;2.08;;
61756;SDS011;57225;61.460;24.060;2023-05-10T01:38:36;3.30;;;2.03;;
61756;SDS011;57225;61.460;24.060;2023-05-10T01:41:49;5.35;;;2.15;;
61756;SDS011;57225;61.460;24.060;2023-05-10T01:44:42;2.40;;;1.67;;
61756;SDS011;57225;61.460;24.060;2023-05-10T01:47:44;6.13;;;2.42;;
61756;SDS011;57225;61.460;24.060;2023-05-10T01:50:43;7.47;;;2.35;;
61756;SDS011;57225;61.460;24.060;2023-05-10T01:53:29;8.88;;;2.40;;
61756;SDS011;57225;61.460;24.060;2023-05-10T01:56:18;3.37;;;1.83;;
61756;SDS011;57225;61.460;24.060;2023-05-10T01:59:11;6.70;;;2.22;;
61756;SDS011;57225;61.460;24.060;2023-05-10T02:01:59;6.50;;;2.15;;
61756;SDS011;57225;61.460;24.060;2023-05-10T02:04:47;4.68;;;1.95;;
61756;SDS011;57225;61.460;24.060;2023-05-10T02:07:37;5.20;;;2.30;;
61756;SDS011;57225;61.460;24.060;2023-05-10T02:10:23;8.23;;;2.50;;
61756;SDS011;57225;61.460;24.060;2023-05-10T02:13:07;6.00;;;2.15;;
61756;SDS011;57225;61.460;24.060;2023-05-10T02:15:53;6.60;;;2.42;;
61756;SDS011;57225;61.460;24.060;2023-05-10T02:18:38;9.32;;;2.50;;
61756;SDS011;57225;61.460;24.060;2023-05-10T02:21:25;6.05;;;2.33;;
61756;SDS011;57225;61.460;24.060;2023-05-10T02:24:11;7.20;;;2.30;;
61756;SDS011;57225;61.460;24.060;2023-05-10T02:26:56;7.72;;;2.63;;
61756;SDS011;57225;61.460;24.060;2023-05-10T02:29:42;5.82;;;2.55;;
61756;SDS011;57225;61.460;24.060;2023-05-10T02:32:27;6.38;;;2.50;;
61756;SDS011;57225;61.460;24.060;2023-05-10T02:35:16;5.68;;;2.40;;
61756;SDS011;57225;61.460;24.060;2023-05-10T02:38:14;5.55;;;2.25;;
61756;SDS011;57225;61.460;24.060;2023-05-10T02:40:59;6.90;;;2.90;;
61756;SDS011;57225;61.460;24.060;2023-05-10T02:43:45;5.63;;;2.85;;
61756;SDS011;57225;61.460;24.060;2023-05-10T02:46:31;6.50;;;2.80;;
61756;SDS011;57225;61.460;24.060;2023-05-10T02:49:15;4.38;;;2.45;;
61756;SDS011;57225;61.460;24.060;2023-05-10T02:52:01;5.28;;;2.67;;
61756;SDS011;57225;61.460;24.060;2023-05-10T02:54:52;6.20;;;2.50;;
61756;SDS011;57225;61.460;24.060;2023-05-10T02:57:41;6.45;;;2.67;;
61756;SDS011;57225;61.460;24.060;2023-05-10T03:00:30;4.72;;;2.70;;
61756;SDS011;57225;61.460;24.060;2023-05-10T03:03:15;9.55;;;2.38;;
61756;SDS011;57225;61.460;24.060;2023-05-10T03:05:59;10.00;;;2.72;;
61756;SDS011;57225;61.460;24.060;2023-05-10T03:08:44;9.52;;;2.92;;
61756;SDS011;57225;61.460;24.060;2023-05-10T03:14:49;9.77;;;2.65;;
61756;SDS011;57225;61.460;24.060;2023-05-10T03:18:07;13.23;;;2.83;;
61756;SDS011;57225;61.460;24.060;2023-05-10T03:20:59;13.13;;;2.40;;
61756;SDS011;57225;61.460;24.060;2023-05-10T03:23:56;10.05;;;2.42;;
61756;SDS011;57225;61.460;24.060;2023-05-10T03:29:34;4.65;;;2.40;;
61756;SDS011;57225;61.460;24.060;2023-05-10T03:32:19;6.43;;;2.15;;
61756;SDS011;57225;61.460;24.060;2023-05-10T03:38:13;12.23;;;2.83;;
61756;SDS011;57225;61.460;24.060;2023-05-10T03:40:57;14.45;;;2.97;;
61756;SDS011;57225;61.460;24.060;2023-05-10T03:43:42;11.30;;;2.97;;
61756;SDS011;57225;61.460;24.060;2023-05-10T03:46:26;16.98;;;3.03;;
61756;SDS011;57225;61.460;24.060;2023-05-10T03:49:11;8.48;;;2.60;;
61756;SDS011;57225;61.460;24.060;2023-05-10T03:51:55;7.30;;;2.53;;
61756;SDS011;57225;61.460;24.060;2023-05-10T03:54:40;10.25;;;2.70;;
61756;SDS011;57225;61.460;24.060;2023-05-10T03:57:25;10.27;;;2.47;;
61756;SDS011;57225;61.460;24.060;2023-05-10T04:00:10;22.92;;;3.25;;
61756;SDS011;57225;61.460;24.060;2023-05-10T04:02:55;11.50;;;2.85;;
61756;SDS011;57225;61.460;24.060;2023-05-10T04:05:39;12.70;;;2.33;;
61756;SDS011;57225;61.460;24.060;2023-05-10T04:08:24;15.68;;;2.55;;
61756;SDS011;57225;61.460;24.060;2023-05-10T04:11:09;9.02;;;2.40;;
61756;SDS011;57225;61.460;24.060;2023-05-10T04:13:57;6.88;;;2.65;;
61756;SDS011;57225;61.460;24.060;2023-05-10T04:16:41;8.40;;;3.03;;
61756;SDS011;57225;61.460;24.060;2023-05-10T04:19:29;5.65;;;2.65;;
61756;SDS011;57225;61.460;24.060;2023-05-10T04:22:14;14.35;;;3.38;;
61756;SDS011;57225;61.460;24.060;2023-05-10T04:24:59;11.10;;;2.33;;
61756;SDS011;57225;61.460;24.060;2023-05-10T04:27:44;13.70;;;2.58;;
61756;SDS011;57225;61.460;24.060;2023-05-10T04:30:28;12.88;;;2.58;;
61756;SDS011;57225;61.460;24.060;2023-05-10T04:33:13;6.50;;;2.58;;
61756;SDS011;57225;61.460;24.060;2023-05-10T04:35:58;14.48;;;2.67;;
61756;SDS011;57225;61.460;24.060;2023-05-10T04:38:42;8.52;;;2.60;;
61756;SDS011;57225;61.460;24.060;2023-05-10T04:41:27;10.90;;;2.95;;
61756;SDS011;57225;61.460;24.060;2023-05-10T04:44:11;16.08;;;3.97;;
61756;SDS011;57225;61.460;24.060;2023-05-10T04:46:56;7.28;;;2.50;;
61756;SDS011;57225;61.460;24.060;2023-05-10T04:49:40;10.27;;;2.90;;
61756;SDS011;57225;61.460;24.060;2023-05-10T04:52:25;14.90;;;2.92;;
61756;SDS011;57225;61.460;24.060;2023-05-10T04:55:10;11.02;;;3.28;;
61756;SDS011;57225;61.460;24.060;2023-05-10T04:57:54;12.57;;;2.90;;
61756;SDS011;57225;61.460;24.060;2023-05-10T05:00:41;13.52;;;3.08;;
61756;SDS011;57225;61.460;24.060;2023-05-10T05:03:26;11.63;;;2.97;;
61756;SDS011;57225;61.460;24.060;2023-05-10T05:06:10;27.35;;;3.75;;
61756;SDS011;57225;61.460;24.060;2023-05-10T05:08:54;17.77;;;3.88;;
61756;SDS011;57225;61.460;24.060;2023-05-10T05:11:39;15.85;;;3.38;;
61756;SDS011;57225;61.460;24.060;2023-05-10T05:14:24;12.32;;;2.70;;
61756;SDS011;57225;61.460;24.060;2023-05-10T05:17:11;22.08;;;3.40;;
61756;SDS011;57225;61.460;24.060;2023-05-10T05:19:56;19.83;;;3.20;;
61756;SDS011;57225;61.460;24.060;2023-05-10T05:22:40;13.60;;;2.90;;
61756;SDS011;57225;61.460;24.060;2023-05-10T05:25:25;9.98;;;2.67;;
61756;SDS011;57225;61.460;24.060;2023-05-10T05:28:09;7.70;;;2.80;;
61756;SDS011;57225;61.460;24.060;2023-05-10T05:30:53;8.80;;;2.63;;
61756;SDS011;57225;61.460;24.060;2023-05-10T05:33:38;16.85;;;3.20;;
61756;SDS011;57225;61.460;24.060;2023-05-10T05:36:22;9.82;;;2.67;;
61756;SDS011;57225;61.460;24.060;2023-05-10T05:39:07;11.35;;;2.78;;
61756;SDS011;57225;61.460;24.060;2023-05-10T05:41:51;14.93;;;3.28;;
61756;SDS011;57225;61.460;24.060;2023-05-10T05:44:36;9.13;;;2.75;;
61756;SDS011;57225;61.460;24.060;2023-05-10T05:47:20;9.60;;;2.75;;
61756;SDS011;57225;61.460;24.060;2023-05-10T05:50:05;8.73;;;2.78;;
61756;SDS011;57225;61.460;24.060;2023-05-10T05:52:50;8.05;;;2.88;;
61756;SDS011;57225;61.460;24.060;2023-05-10T05:55:34;5.97;;;2.53;;
61756;SDS011;57225;61.460;24.060;2023-05-10T05:58:19;16.63;;;3.03;;
61756;SDS011;57225;61.460;24.060;2023-05-10T06:01:04;12.52;;;2.95;;
61756;SDS011;57225;61.460;24.060;2023-05-10T06:03:48;7.15;;;2.83;;
61756;SDS011;57225;61.460;24.060;2023-05-10T06:06:33;12.02;;;3.40;;
61756;SDS011;57225;61.460;24.060;2023-05-10T06:09:17;7.47;;;3.53;;
61756;SDS011;57225;61.460;24.060;2023-05-10T06:12:01;11.02;;;3.25;;
61756;SDS011;57225;61.460;24.060;2023-05-10T06:14:46;9.93;;;2.90;;
61756;SDS011;57225;61.460;24.060;2023-05-10T06:17:32;19.13;;;3.60;;
61756;SDS011;57225;61.460;24.060;2023-05-10T06:20:17;8.75;;;3.42;;
61756;SDS011;57225;61.460;24.060;2023-05-10T06:23:01;25.50;;;3.63;;
61756;SDS011;57225;61.460;24.060;2023-05-10T06:25:46;10.93;;;3.35;;
61756;SDS011;57225;61.460;24.060;2023-05-10T06:28:30;11.77;;;3.17;;
61756;SDS011;57225;61.460;24.060;2023-05-10T06:31:16;12.07;;;3.20;;
61756;SDS011;57225;61.460;24.060;2023-05-10T06:34:00;15.45;;;3.00;;
61756;SDS011;57225;61.460;24.060;2023-05-10T06:36:45;11.90;;;3.35;;
61756;SDS011;57225;61.460;24.060;2023-05-10T06:39:29;11.60;;;3.03;;
61756;SDS011;57225;61.460;24.060;2023-05-10T06:42:14;6.43;;;3.13;;
61756;SDS011;57225;61.460;24.060;2023-05-10T06:44:58;40.63;;;4.60;;
61756;SDS011;57225;61.460;24.060;2023-05-10T06:47:42;11.43;;;3.33;;
61756;SDS011;57225;61.460;24.060;2023-05-10T06:50:27;13.68;;;3.60;;
61756;SDS011;57225;61.460;24.060;2023-05-10T06:53:11;11.85;;;3.30;;
61756;SDS011;57225;61.460;24.060;2023-05-10T06:55:57;13.68;;;3.67;;
61756;SDS011;57225;61.460;24.060;2023-05-10T06:58:41;11.77;;;3.53;;
61756;SDS011;57225;61.460;24.060;2023-05-10T07:01:26;10.25;;;3.35;;
61756;SDS011;57225;61.460;24.060;2023-05-10T07:04:10;20.08;;;3.40;;
61756;SDS011;57225;61.460;24.060;2023-05-10T07:06:56;6.93;;;3.03;;
61756;SDS011;57225;61.460;24.060;2023-05-10T07:09:41;8.68;;;3.25;;
61756;SDS011;57225;61.460;24.060;2023-05-10T07:12:26;36.45;;;4.22;;
61756;SDS011;57225;61.460;24.060;2023-05-10T07:15:10;11.88;;;3.72;;
61756;SDS011;57225;61.460;24.060;2023-05-10T07:17:55;7.53;;;3.42;;
61756;SDS011;57225;61.460;24.060;2023-05-10T07:20:39;13.30;;;3.45;;
61756;SDS011;57225;61.460;24.060;2023-05-10T07:23:30;11.55;;;2.97;;
61756;SDS011;57225;61.460;24.060;2023-05-10T07:26:25;8.45;;;2.85;;
61756;SDS011;57225;61.460;24.060;2023-05-10T07:29:10;8.35;;;2.95;;
61756;SDS011;57225;61.460;24.060;2023-05-10T07:31:54;13.50;;;3.30;;
61756;SDS011;57225;61.460;24.060;2023-05-10T07:34:39;12.27;;;3.40;;
61756;SDS011;57225;61.460;24.060;2023-05-10T07:37:23;18.98;;;3.17;;
61756;SDS011;57225;61.460;24.060;2023-05-10T07:40:08;11.70;;;3.60;;
61756;SDS011;57225;61.460;24.060;2023-05-10T07:42:53;9.82;;;3.67;;
61756;SDS011;57225;61.460;24.060;2023-05-10T07:45:37;11.27;;;3.70;;
61756;SDS011;57225;61.460;24.060;2023-05-10T07:48:24;9.45;;;3.65;;
61756;SDS011;57225;61.460;24.060;2023-05-10T07:51:08;13.52;;;3.35;;
61756;SDS011;57225;61.460;24.060;2023-05-10T07:53:53;8.20;;;3.10;;
61756;SDS011;57225;61.460;24.060;2023-05-10T07:56:38;20.40;;;4.15;;
61756;SDS011;57225;61.460;24.060;2023-05-10T07:59:23;7.38;;;3.30;;
61756;SDS011;57225;61.460;24.060;2023-05-10T08:02:07;14.80;;;3.40;;
61756;SDS011;57225;61.460;24.060;2023-05-10T08:04:52;11.45;;;2.90;;
61756;SDS011;57225;61.460;24.060;2023-05-10T08:07:36;8.48;;;3.42;;
61756;SDS011;57225;61.460;24.060;2023-05-10T08:10:21;6.82;;;3.25;;
61756;SDS011;57225;61.460;24.060;2023-05-10T08:13:05;7.55;;;2.90;;
61756;SDS011;57225;61.460;24.060;2023-05-10T08:15:51;9.60;;;3.05;;
61756;SDS011;57225;61.460;24.060;2023-05-10T08:18:37;15.85;;;3.83;;
61756;SDS011;57225;61.460;24.060;2023-05-10T08:21:22;14.73;;;3.53;;
61756;SDS011;57225;61.460;24.060;2023-05-10T08:24:06;7.05;;;3.28;;
61756;SDS011;57225;61.460;24.060;2023-05-10T08:26:51;13.85;;;3.20;;
61756;SDS011;57225;61.460;24.060;2023-05-10T08:29:37;8.77;;;3.10;;
61756;SDS011;57225;61.460;24.060;2023-05-10T08:32:21;9.68;;;3.22;;
61756;SDS011;57225;61.460;24.060;2023-05-10T08:38:18;13.10;;;3.78;;
61756;SDS011;57225;61.460;24.060;2023-05-10T08:41:03;7.70;;;3.28;;
61756;SDS011;57225;61.460;24.060;2023-05-10T08:43:49;24.33;;;4.43;;
61756;SDS011;57225;61.460;24.060;2023-05-10T08:46:34;13.63;;;3.50;;
61756;SDS011;57225;61.460;24.060;2023-05-10T08:49:22;9.98;;;3.47;;
61756;SDS011;57225;61.460;24.060;2023-05-10T08:52:10;10.45;;;3.30;;
61756;SDS011;57225;61.460;24.060;2023-05-10T08:54:59;8.52;;;3.33;;
61756;SDS011;57225;61.460;24.060;2023-05-10T08:57:43;7.95;;;3.70;;
61756;SDS011;57225;61.460;24.060;2023-05-10T09:00:28;11.70;;;3.28;;
61756;SDS011;57225;61.460;24.060;2023-05-10T09:03:13;10.35;;;3.10;;
61756;SDS011;57225;61.460;24.060;2023-05-10T09:05:58;5.30;;;2.83;;
61756;SDS011;57225;61.460;24.060;2023-05-10T09:08:43;10.02;;;3.47;;
61756;SDS011;57225;61.460;24.060;2023-05-10T09:11:29;10.38;;;3.10;;
61756;SDS011;57225;61.460;24.060;2023-05-10T09:14:15;11.15;;;3.20;;
61756;SDS011;57225;61.460;24.060;2023-05-10T09:17:00;8.25;;;3.20;;
61756;SDS011;57225;61.460;24.060;2023-05-10T09:19:45;7.32;;;3.10;;
61756;SDS011;57225;61.460;24.060;2023-05-10T09:22:30;8.48;;;3.13;;
61756;SDS011;57225;61.460;24.060;2023-05-10T09:25:15;10.73;;;3.20;;
61756;SDS011;57225;61.460;24.060;2023-05-10T09:28:00;6.80;;;2.83;;
61756;SDS011;57225;61.460;24.060;2023-05-10T09:30:45;10.57;;;3.10;;
61756;SDS011;57225;61.460;24.060;2023-05-10T09:33:47;9.23;;;2.80;;
61756;SDS011;57225;61.460;24.060;2023-05-10T09:36:33;7.88;;;3.20;;
61756;SDS011;57225;61.460;24.060;2023-05-10T09:39:17;9.52;;;3.00;;
61756;SDS011;57225;61.460;24.060;2023-05-10T09:42:03;8.38;;;2.70;;
61756;SDS011;57225;61.460;24.060;2023-05-10T09:44:51;9.75;;;2.78;;
61756;SDS011;57225;61.460;24.060;2023-05-10T09:47:35;6.97;;;2.90;;
61756;SDS011;57225;61.460;24.060;2023-05-10T09:50:20;7.43;;;3.10;;
61756;SDS011;57225;61.460;24.060;2023-05-10T09:53:05;6.28;;;2.40;;
61756;SDS011;57225;61.460;24.060;2023-05-10T09:55:50;9.13;;;3.13;;
61756;SDS011;57225;61.460;24.060;2023-05-10T09:58:36;5.43;;;2.65;;
61756;SDS011;57225;61.460;24.060;2023-05-10T10:01:25;6.07;;;2.75;;
61756;SDS011;57225;61.460;24.060;2023-05-10T10:04:10;10.80;;;2.90;;
61756;SDS011;57225;61.460;24.060;2023-05-10T10:06:58;14.30;;;2.70;;
61756;SDS011;57225;61.460;24.060;2023-05-10T10:09:44;7.72;;;2.67;;
61756;SDS011;57225;61.460;24.060;2023-05-10T10:12:30;6.10;;;2.92;;
61756;SDS011;57225;61.460;24.060;2023-05-10T10:15:15;13.95;;;3.25;;
61756;SDS011;57225;61.460;24.060;2023-05-10T10:18:00;8.43;;;2.67;;
61756;SDS011;57225;61.460;24.060;2023-05-10T10:20:45;9.82;;;2.80;;
61756;SDS011;57225;61.460;24.060;2023-05-10T10:23:38;8.15;;;2.67;;
61756;SDS011;57225;61.460;24.060;2023-05-10T10:26:23;8.90;;;2.20;;
61756;SDS011;57225;61.460;24.060;2023-05-10T10:32:30;10.80;;;2.70;;
61756;SDS011;57225;61.460;24.060;2023-05-10T10:35:17;9.80;;;2.92;;
61756;SDS011;57225;61.460;24.060;2023-05-10T10:38:03;13.95;;;3.20;;
61756;SDS011;57225;61.460;24.060;2023-05-10T10:40:48;8.52;;;2.70;;
61756;SDS011;57225;61.460;24.060;2023-05-10T10:43:33;12.57;;;3.08;;
61756;SDS011;57225;61.460;24.060;2023-05-10T10:46:18;12.73;;;2.78;;
61756;SDS011;57225;61.460;24.060;2023-05-10T10:49:10;6.22;;;2.28;;
61756;SDS011;57225;61.460;24.060;2023-05-10T10:55:12;14.82;;;2.47;;
61756;SDS011;57225;61.460;24.060;2023-05-10T10:57:57;9.02;;;2.35;;
61756;SDS011;57225;61.460;24.060;2023-05-10T11:03:30;6.50;;;2.22;;
61756;SDS011;57225;61.460;24.060;2023-05-10T11:06:16;7.05;;;2.00;;
61756;SDS011;57225;61.460;24.060;2023-05-10T11:09:13;5.75;;;2.40;;
61756;SDS011;57225;61.460;24.060;2023-05-10T11:11:57;8.48;;;2.53;;
61756;SDS011;57225;61.460;24.060;2023-05-10T11:14:47;8.10;;;2.28;;
61756;SDS011;57225;61.460;24.060;2023-05-10T11:17:34;4.80;;;2.13;;
61756;SDS011;57225;61.460;24.060;2023-05-10T11:20:19;8.82;;;2.38;;
61756;SDS011;57225;61.460;24.060;2023-05-10T11:23:19;6.65;;;2.60;;
61756;SDS011;57225;61.460;24.060;2023-05-10T11:26:34;8.63;;;2.40;;
61756;SDS011;57225;61.460;24.060;2023-05-10T11:29:19;8.52;;;2.15;;
61756;SDS011;57225;61.460;24.060;2023-05-10T11:32:04;5.65;;;2.15;;
61756;SDS011;57225;61.460;24.060;2023-05-10T11:34:51;6.97;;;2.25;;
61756;SDS011;57225;61.460;24.060;2023-05-10T11:37:36;9.15;;;2.30;;
61756;SDS011;57225;61.460;24.060;2023-05-10T11:40:25;10.00;;;1.90;;
61756;SDS011;57225;61.460;24.060;2023-05-10T11:43:11;4.82;;;1.90;;
61756;SDS011;57225;61.460;24.060;2023-05-10T11:45:55;4.43;;;1.85;;
61756;SDS011;57225;61.460;24.060;2023-05-10T11:48:41;5.95;;;1.90;;
61756;SDS011;57225;61.460;24.060;2023-05-10T11:51:27;33.25;;;2.70;;
61756;SDS011;57225;61.460;24.060;2023-05-10T11:54:12;2.47;;;1.85;;
61756;SDS011;57225;61.460;24.060;2023-05-10T11:56:56;4.70;;;1.50;;
61756;SDS011;57225;61.460;24.060;2023-05-10T11:59:40;6.28;;;2.40;;
61756;SDS011;57225;61.460;24.060;2023-05-10T12:02:25;5.82;;;1.80;;
61756;SDS011;57225;61.460;24.060;2023-05-10T12:08:10;5.35;;;2.00;;
61756;SDS011;57225;61.460;24.060;2023-05-10T12:11:05;4.15;;;1.88;;
61756;SDS011;57225;61.460;24.060;2023-05-10T12:13:52;5.05;;;1.83;;
61756;SDS011;57225;61.460;24.060;2023-05-10T12:16:37;7.70;;;2.00;;
61756;SDS011;57225;61.460;24.060;2023-05-10T12:19:21;7.63;;;2.13;;
61756;SDS011;57225;61.460;24.060;2023-05-10T12:22:06;10.85;;;2.03;;
61756;SDS011;57225;61.460;24.060;2023-05-10T12:24:50;3.85;;;1.92;;
61756;SDS011;57225;61.460;24.060;2023-05-10T12:27:35;7.22;;;2.20;;
61756;SDS011;57225;61.460;24.060;2023-05-10T12:30:20;5.07;;;1.95;;
61756;SDS011;57225;61.460;24.060;2023-05-10T12:33:10;6.90;;;1.98;;
61756;SDS011;57225;61.460;24.060;2023-05-10T12:35:58;5.10;;;2.00;;
61756;SDS011;57225;61.460;24.060;2023-05-10T12:38:43;13.00;;;1.80;;
61756;SDS011;57225;61.460;24.060;2023-05-10T12:44:16;4.57;;;2.10;;
61756;SDS011;57225;61.460;24.060;2023-05-10T12:47:01;9.70;;;2.17;;
61756;SDS011;57225;61.460;24.060;2023-05-10T12:49:45;15.50;;;2.70;;
61756;SDS011;57225;61.460;24.060;2023-05-10T12:52:30;5.18;;;1.98;;
61756;SDS011;57225;61.460;24.060;2023-05-10T12:55:15;8.75;;;2.10;;
61756;SDS011;57225;61.460;24.060;2023-05-10T12:58:00;6.72;;;2.00;;
61756;SDS011;57225;61.460;24.060;2023-05-10T13:00:44;9.23;;;2.58;;
61756;SDS011;57225;61.460;24.060;2023-05-10T13:03:29;8.88;;;2.40;;
61756;SDS011;57225;61.460;24.060;2023-05-10T13:06:14;6.15;;;2.10;;
61756;SDS011;57225;61.460;24.060;2023-05-10T13:08:58;20.98;;;2.22;;
61756;SDS011;57225;61.460;24.060;2023-05-10T13:11:43;6.55;;;2.00;;
61756;SDS011;57225;61.460;24.060;2023-05-10T13:14:27;5.20;;;2.00;;
61756;SDS011;57225;61.460;24.060;2023-05-10T13:17:12;9.07;;;2.00;;
61756;SDS011;57225;61.460;24.060;2023-05-10T13:19:59;7.45;;;2.08;;
61756;SDS011;57225;61.460;24.060;2023-05-10T13:22:43;5.50;;;1.98;;
61756;SDS011;57225;61.460;24.060;2023-05-10T13:25:28;8.25;;;2.13;;
61756;SDS011;57225;61.460;24.060;2023-05-10T13:28:13;4.20;;;1.98;;
61756;SDS011;57225;61.460;24.060;2023-05-10T13:30:58;6.10;;;2.13;;
61756;SDS011;57225;61.460;24.060;2023-05-10T13:33:43;6.18;;;2.35;;
61756;SDS011;57225;61.460;24.060;2023-05-10T13:36:28;5.05;;;2.08;;
61756;SDS011;57225;61.460;24.060;2023-05-10T13:39:13;9.63;;;2.53;;
61756;SDS011;57225;61.460;24.060;2023-05-10T13:41:57;5.47;;;1.80;;
61756;SDS011;57225;61.460;24.060;2023-05-10T13:44:42;8.50;;;2.17;;
61756;SDS011;57225;61.460;24.060;2023-05-10T13:47:27;8.15;;;2.17;;
61756;SDS011;57225;61.460;24.060;2023-05-10T13:50:11;8.45;;;1.98;;
61756;SDS011;57225;61.460;24.060;2023-05-10T13:52:56;4.75;;;1.95;;
61756;SDS011;57225;61.460;24.060;2023-05-10T13:55:40;4.13;;;1.60;;
61756;SDS011;57225;61.460;24.060;2023-05-10T13:58:25;6.82;;;1.83;;
61756;SDS011;57225;61.460;24.060;2023-05-10T14:01:10;4.07;;;1.90;;
61756;SDS011;57225;61.460;24.060;2023-05-10T14:03:55;4.32;;;1.77;;
61756;SDS011;57225;61.460;24.060;2023-05-10T14:06:42;5.20;;;1.90;;
61756;SDS011;57225;61.460;24.060;2023-05-10T14:09:26;7.13;;;1.70;;
61756;SDS011;57225;61.460;24.060;2023-05-10T14:12:11;8.80;;;1.73;;
61756;SDS011;57225;61.460;24.060;2023-05-10T14:14:55;3.67;;;1.90;;
61756;SDS011;57225;61.460;24.060;2023-05-10T14:17:40;8.27;;;1.75;;
61756;SDS011;57225;61.460;24.060;2023-05-10T14:20:24;12.00;;;1.95;;
61756;SDS011;57225;61.460;24.060;2023-05-10T14:23:27;4.18;;;1.65;;
61756;SDS011;57225;61.460;24.060;2023-05-10T14:26:12;2.50;;;1.70;;
61756;SDS011;57225;61.460;24.060;2023-05-10T14:28:57;8.10;;;1.88;;
61756;SDS011;57225;61.460;24.060;2023-05-10T14:31:41;4.18;;;2.10;;
61756;SDS011;57225;61.460;24.060;2023-05-10T14:34:25;8.00;;;1.80;;
61756;SDS011;57225;61.460;24.060;2023-05-10T14:37:11;13.63;;;2.10;;
61756;SDS011;57225;61.460;24.060;2023-05-10T14:39:57;6.63;;;2.00;;
61756;SDS011;57225;61.460;24.060;2023-05-10T14:42:42;6.90;;;1.98;;
61756;SDS011;57225;61.460;24.060;2023-05-10T14:45:26;6.55;;;1.90;;
61756;SDS011;57225;61.460;24.060;2023-05-10T14:48:11;4.95;;;1.90;;
61756;SDS011;57225;61.460;24.060;2023-05-10T14:50:59;7.63;;;1.93;;
61756;SDS011;57225;61.460;24.060;2023-05-10T14:53:43;4.65;;;1.70;;
61756;SDS011;57225;61.460;24.060;2023-05-10T14:56:27;4.35;;;2.08;;
61756;SDS011;57225;61.460;24.060;2023-05-10T14:59:12;6.53;;;1.95;;
61756;SDS011;57225;61.460;24.060;2023-05-10T15:01:56;9.23;;;1.60;;
61756;SDS011;57225;61.460;24.060;2023-05-10T15:04:41;7.95;;;2.00;;
61756;SDS011;57225;61.460;24.060;2023-05-10T15:07:25;5.28;;;1.98;;
61756;SDS011;57225;61.460;24.060;2023-05-10T15:10:10;11.80;;;2.00;;
61756;SDS011;57225;61.460;24.060;2023-05-10T15:12:55;10.55;;;2.17;;
61756;SDS011;57225;61.460;24.060;2023-05-10T15:15:39;7.40;;;1.80;;
61756;SDS011;57225;61.460;24.060;2023-05-10T15:18:24;5.75;;;1.90;;
61756;SDS011;57225;61.460;24.060;2023-05-10T15:21:09;4.90;;;2.45;;
61756;SDS011;57225;61.460;24.060;2023-05-10T15:23:54;5.80;;;2.00;;
61756;SDS011;57225;61.460;24.060;2023-05-10T15:26:39;6.03;;;1.85;;
61756;SDS011;57225;61.460;24.060;2023-05-10T15:29:24;16.00;;;2.90;;
61756;SDS011;57225;61.460;24.060;2023-05-10T15:32:08;5.65;;;2.40;;
61756;SDS011;57225;61.460;24.060;2023-05-10T15:34:52;9.27;;;2.13;;
61756;SDS011;57225;61.460;24.060;2023-05-10T15:37:37;11.05;;;2.05;;
61756;SDS011;57225;61.460;24.060;2023-05-10T15:40:21;6.47;;;1.80;;
61756;SDS011;57225;61.460;24.060;2023-05-10T15:43:06;4.47;;;1.73;;
61756;SDS011;57225;61.460;24.060;2023-05-10T15:45:52;3.28;;;1.83;;
61756;SDS011;57225;61.460;24.060;2023-05-10T15:48:36;13.48;;;2.25;;
61756;SDS011;57225;61.460;24.060;2023-05-10T15:51:23;4.60;;;1.70;;
61756;SDS011;57225;61.460;24.060;2023-05-10T15:54:07;5.18;;;2.00;;
61756;SDS011;57225;61.460;24.060;2023-05-10T15:56:52;8.18;;;2.33;;
61756;SDS011;57225;61.460;24.060;2023-05-10T15:59:37;7.97;;;1.80;;
61756;SDS011;57225;61.460;24.060;2023-05-10T16:02:22;10.32;;;2.20;;
61756;SDS011;57225;61.460;24.060;2023-05-10T16:05:07;8.85;;;2.30;;
61756;SDS011;57225;61.460;24.060;2023-05-10T16:07:52;6.68;;;1.83;;
61756;SDS011;57225;61.460;24.060;2023-05-10T16:10:37;3.92;;;2.03;;
61756;SDS011;57225;61.460;24.060;2023-05-10T16:13:22;8.52;;;2.50;;
61756;SDS011;57225;61.460;24.060;2023-05-10T16:16:06;7.13;;;2.10;;
61756;SDS011;57225;61.460;24.060;2023-05-10T16:18:51;13.90;;;4.18;;
61756;SDS011;57225;61.460;24.060;2023-05-10T16:21:36;9.68;;;2.80;;
61756;SDS011;57225;61.460;24.060;2023-05-10T16:24:21;6.20;;;2.00;;
61756;SDS011;57225;61.460;24.060;2023-05-10T16:27:05;13.45;;;3.60;;
61756;SDS011;57225;61.460;24.060;2023-05-10T16:29:49;4.63;;;2.67;;
61756;SDS011;57225;61.460;24.060;2023-05-10T16:32:34;9.00;;;2.45;;
61756;SDS011;57225;61.460;24.060;2023-05-10T16:35:19;7.05;;;2.45;;
61756;SDS011;57225;61.460;24.060;2023-05-10T16:38:04;11.32;;;2.60;;
61756;SDS011;57225;61.460;24.060;2023-05-10T16:40:49;4.75;;;2.03;;
61756;SDS011;57225;61.460;24.060;2023-05-10T16:43:33;10.15;;;2.00;;
61756;SDS011;57225;61.460;24.060;2023-05-10T16:46:19;6.07;;;1.92;;
61756;SDS011;57225;61.460;24.060;2023-05-10T16:49:05;5.82;;;1.90;;
61756;SDS011;57225;61.460;24.060;2023-05-10T16:51:49;10.77;;;2.25;;
61756;SDS011;57225;61.460;24.060;2023-05-10T16:54:33;8.13;;;2.25;;
61756;SDS011;57225;61.460;24.060;2023-05-10T16:57:18;5.88;;;1.75;;